sensor_id;sensor_type;location;lat;lon;timestamp;pressure;altitude;pressure_sealevel;temperature;humidity
31092;BME280;67728;53.122;12.776;2023-04-28T00:00:00;101088.88;;;0.65;82.55
31092;BME280;67728;53.122;12.776;2023-04-28T00:01:31;101093.97;;;0.65;82.31
31092;BME280;67728;53.122;12.776;2023-04-28T00:03:03;101098.16;;;0.63;83.09
31092;BME280;67728;53.122;12.776;2023-04-28T00:04:35;101088.69;;;0.58;83.92
31092;BME280;67728;53.122;12.776;2023-04-28T00:06:05;101099.44;;;0.48;83.54
31092;BME280;67728;53.122;12.776;2023-04-28T00:07:37;101089.38;;;0.53;84.89
31092;BME280;67728;53.122;12.776;2023-04-28T00:09:08;101089.41;;;0.54;84.46
31092;BME280;67728;53.122;12.776;2023-04-28T00:10:40;101088.88;;;0.65;84.52
31092;BME280;67728;53.122;12.776;2023-04-28T00:12:11;101087.22;;;0.67;83.51
31092;BME280;67728;53.122;12.776;2023-04-28T00:13:43;101094.75;;;0.62;83.39
31092;BME280;67728;53.122;12.776;2023-04-28T00:15:15;101087.72;;;0.55;84.32
31092;BME280;67728;53.122;12.776;2023-04-28T00:16:47;101084.91;;;0.46;83.64
31092;BME280;67728;53.122;12.776;2023-04-28T00:18:19;101086.28;;;0.36;83.35
31092;BME280;67728;53.122;12.776;2023-04-28T00:19:50;101083.88;;;0.41;83.63
31092;BME280;67728;53.122;12.776;2023-04-28T00:21:22;101086.41;;;0.41;83.20
31092;BME280;67728;53.122;12.776;2023-04-28T00:22:52;101083.63;;;0.33;83.75
31092;BME280;67728;53.122;12.776;2023-04-28T00:24:24;101090.38;;;0.31;84.42
31092;BME280;67728;53.122;12.776;2023-04-28T00:25:56;101083.16;;;0.18;85.31
31092;BME280;67728;53.122;12.776;2023-04-28T00:27:26;101083.38;;;-0.01;84.15
31092;BME280;67728;53.122;12.776;2023-04-28T00:28:58;101086.84;;;0.01;84.99
31092;BME280;67728;53.122;12.776;2023-04-28T00:30:31;101085.69;;;-0.09;84.81
31092;BME280;67728;53.122;12.776;2023-04-28T00:32:02;101089.19;;;-0.05;85.33
31092;BME280;67728;53.122;12.776;2023-04-28T00:33:34;101087.84;;;0.06;85.41
31092;BME280;67728;53.122;12.776;2023-04-28T00:35:05;101086.63;;;0.20;85.09
31092;BME280;67728;53.122;12.776;2023-04-28T00:36:36;101080.84;;;0.26;85.34
31092;BME280;67728;53.122;12.776;2023-04-28T00:38:08;101071.13;;;0.14;85.11
31092;BME280;67728;53.122;12.776;2023-04-28T00:39:40;101085.97;;;0.00;83.51
31092;BME280;67728;53.122;12.776;2023-04-28T00:41:14;101077.28;;;-0.06;84.64
31092;BME280;67728;53.122;12.776;2023-04-28T00:42:46;101083.63;;;0.07;84.18
31092;BME280;67728;53.122;12.776;2023-04-28T00:44:18;101073.84;;;-0.32;83.30
31092;BME280;67728;53.122;12.776;2023-04-28T00:45:51;101076.75;;;-0.21;84.29
31092;BME280;67728;53.122;12.776;2023-04-28T00:47:22;101077.38;;;-0.03;84.45
31092;BME280;67728;53.122;12.776;2023-04-28T00:48:53;101074.81;;;-0.03;84.42
31092;BME280;67728;53.122;12.776;2023-04-28T00:50:25;101070.56;;;-0.03;84.31
31092;BME280;67728;53.122;12.776;2023-04-28T00:51:57;101068.50;;;-0.39;84.46
31092;BME280;67728;53.122;12.776;2023-04-28T00:53:33;101066.38;;;-0.51;84.79
31092;BME280;67728;53.122;12.776;2023-04-28T00:55:06;101060.88;;;-0.38;84.85
31092;BME280;67728;53.122;12.776;2023-04-28T00:56:39;101071.53;;;-0.24;85.25
31092;BME280;67728;53.122;12.776;2023-04-28T00:58:11;101064.00;;;-0.21;85.33
31092;BME280;67728;53.122;12.776;2023-04-28T00:59:41;101057.28;;;-0.19;85.78
31092;BME280;67728;53.122;12.776;2023-04-28T01:01:14;101066.13;;;-0.08;85.49
31092;BME280;67728;53.122;12.776;2023-04-28T01:02:46;101060.69;;;-0.19;85.21
31092;BME280;67728;53.122;12.776;2023-04-28T01:04:20;101067.06;;;-0.06;84.79
31092;BME280;67728;53.122;12.776;2023-04-28T01:05:51;101063.22;;;-0.19;85.39
31092;BME280;67728;53.122;12.776;2023-04-28T01:07:23;101060.66;;;-0.20;85.15
31092;BME280;67728;53.122;12.776;2023-04-28T01:08:55;101060.75;;;-0.17;84.80
31092;BME280;67728;53.122;12.776;2023-04-28T01:10:26;101061.56;;;-0.18;84.43
31092;BME280;67728;53.122;12.776;2023-04-28T01:11:58;101060.69;;;-0.19;84.79
31092;BME280;67728;53.122;12.776;2023-04-28T01:13:29;101061.28;;;-0.27;84.30
31092;BME280;67728;53.122;12.776;2023-04-28T01:15:00;101058.97;;;-0.69;84.49
31092;BME280;67728;53.122;12.776;2023-04-28T01:16:33;101059.31;;;-0.59;85.28
31092;BME280;67728;53.122;12.776;2023-04-28T01:18:06;101055.34;;;-0.51;85.17
31092;BME280;67728;53.122;12.776;2023-04-28T01:19:37;101060.53;;;-0.48;85.93
31092;BME280;67728;53.122;12.776;2023-04-28T01:21:09;101063.19;;;-0.45;86.06
31092;BME280;67728;53.122;12.776;2023-04-28T01:22:40;101055.16;;;-0.56;85.89
31092;BME280;67728;53.122;12.776;2023-04-28T01:24:13;101052.94;;;-0.47;86.22
31092;BME280;67728;53.122;12.776;2023-04-28T01:25:44;101059.38;;;-0.33;86.62
31092;BME280;67728;53.122;12.776;2023-04-28T01:27:16;101051.38;;;-0.43;86.01
31092;BME280;67728;53.122;12.776;2023-04-28T01:28:48;101045.41;;;-0.44;86.06
31092;BME280;67728;53.122;12.776;2023-04-28T01:30:19;101055.34;;;-0.51;86.08
31092;BME280;67728;53.122;12.776;2023-04-28T01:31:51;101052.97;;;-0.45;86.25
31092;BME280;67728;53.122;12.776;2023-04-28T01:33:22;101043.72;;;-0.43;85.17
31092;BME280;67728;53.122;12.776;2023-04-28T01:34:53;101045.22;;;-0.48;85.86
31092;BME280;67728;53.122;12.776;2023-04-28T01:36:25;101043.41;;;-0.52;85.19
31092;BME280;67728;53.122;12.776;2023-04-28T01:37:57;101039.97;;;-0.54;86.59
31092;BME280;67728;53.122;12.776;2023-04-28T01:39:31;101043.56;;;-0.48;86.81
31092;BME280;67728;53.122;12.776;2023-04-28T01:41:02;101042.31;;;-0.59;86.10
31092;BME280;67728;53.122;12.776;2023-04-28T01:42:33;101045.88;;;-0.54;85.99
31092;BME280;67728;53.122;12.776;2023-04-28T01:44:05;101041.38;;;-0.37;86.34
31092;BME280;67728;53.122;12.776;2023-04-28T01:45:37;101042.78;;;-0.45;86.43
31092;BME280;67728;53.122;12.776;2023-04-28T01:47:08;101042.59;;;-0.51;85.42
31092;BME280;67728;53.122;12.776;2023-04-28T01:48:39;101049.28;;;-0.55;85.65
31092;BME280;67728;53.122;12.776;2023-04-28T01:50:10;101043.56;;;-0.73;85.72
31092;BME280;67728;53.122;12.776;2023-04-28T01:51:41;101041.03;;;-0.72;87.33
31092;BME280;67728;53.122;12.776;2023-04-28T01:53:13;101036.94;;;-0.68;86.94
31092;BME280;67728;53.122;12.776;2023-04-28T01:54:45;101029.22;;;-0.70;87.04
31092;BME280;67728;53.122;12.776;2023-04-28T01:56:17;101031.84;;;-0.68;86.41
31092;BME280;67728;53.122;12.776;2023-04-28T01:57:48;101035.94;;;-0.72;86.34
31092;BME280;67728;53.122;12.776;2023-04-28T01:59:19;101033.66;;;-0.64;86.48
31092;BME280;67728;53.122;12.776;2023-04-28T02:00:51;101029.28;;;-0.68;86.36
31092;BME280;67728;53.122;12.776;2023-04-28T02:02:21;101033.84;;;-0.83;86.10
31092;BME280;67728;53.122;12.776;2023-04-28T02:03:53;101026.91;;;-1.11;85.96
31092;BME280;67728;53.122;12.776;2023-04-28T02:05:25;101031.19;;;-0.86;86.82
31092;BME280;67728;53.122;12.776;2023-04-28T02:06:56;101024.75;;;-0.77;86.83
31092;BME280;67728;53.122;12.776;2023-04-28T02:08:28;101030.72;;;-0.76;87.07
31092;BME280;67728;53.122;12.776;2023-04-28T02:10:00;101030.75;;;-0.75;87.25
31092;BME280;67728;53.122;12.776;2023-04-28T02:11:31;101022.84;;;-0.82;87.19
31092;BME280;67728;53.122;12.776;2023-04-28T02:13:03;101026.25;;;-0.82;87.13
31092;BME280;67728;53.122;12.776;2023-04-28T02:14:34;101028.59;;;-0.88;85.62
31092;BME280;67728;53.122;12.776;2023-04-28T02:16:06;101026.84;;;-0.89;86.22
31092;BME280;67728;53.122;12.776;2023-04-28T02:17:37;101023.59;;;-0.85;86.67
31092;BME280;67728;53.122;12.776;2023-04-28T02:19:08;101032.38;;;-0.77;87.05
31092;BME280;67728;53.122;12.776;2023-04-28T02:20:40;101028.81;;;-0.82;86.11
31092;BME280;67728;53.122;12.776;2023-04-28T02:22:11;101035.63;;;-0.81;86.23
31092;BME280;67728;53.122;12.776;2023-04-28T02:23:42;101035.25;;;-0.91;85.84
31092;BME280;67728;53.122;12.776;2023-04-28T02:25:14;101029.00;;;-0.99;85.85
31092;BME280;67728;53.122;12.776;2023-04-28T02:26:46;101023.06;;;-1.00;87.08
31092;BME280;67728;53.122;12.776;2023-04-28T02:28:17;101027.38;;;-0.97;86.67
31092;BME280;67728;53.122;12.776;2023-04-28T02:29:49;101026.44;;;-1.01;85.86
31092;BME280;67728;53.122;12.776;2023-04-28T02:31:20;101028.38;;;-0.94;86.59
31092;BME280;67728;53.122;12.776;2023-04-28T02:32:52;101025.66;;;-1.22;86.03
31092;BME280;67728;53.122;12.776;2023-04-28T02:34:23;101029.47;;;-1.11;87.29
31092;BME280;67728;53.122;12.776;2023-04-28T02:35:57;101025.41;;;-1.06;86.39
31092;BME280;67728;53.122;12.776;2023-04-28T02:37:28;101023.91;;;-0.99;86.50
31092;BME280;67728;53.122;12.776;2023-04-28T02:39:00;101024.03;;;-0.96;86.74
31092;BME280;67728;53.122;12.776;2023-04-28T02:40:33;101023.78;;;-1.04;85.83
31092;BME280;67728;53.122;12.776;2023-04-28T02:42:04;101024.41;;;-1.09;86.00
31092;BME280;67728;53.122;12.776;2023-04-28T02:43:36;101016.28;;;-0.99;85.80
31092;BME280;67728;53.122;12.776;2023-04-28T02:45:08;101021.06;;;-1.08;86.10
31092;BME280;67728;53.122;12.776;2023-04-28T02:46:40;101025.22;;;-1.10;87.23
31092;BME280;67728;53.122;12.776;2023-04-28T02:48:11;101026.91;;;-1.11;86.74
31092;BME280;67728;53.122;12.776;2023-04-28T02:49:43;101030.00;;;-1.19;86.46
31092;BME280;67728;53.122;12.776;2023-04-28T02:51:13;101021.59;;;-1.17;87.07
31092;BME280;67728;53.122;12.776;2023-04-28T02:52:45;101026.91;;;-1.11;87.46
31092;BME280;67728;53.122;12.776;2023-04-28T02:54:16;101023.53;;;-1.10;86.68
31092;BME280;67728;53.122;12.776;2023-04-28T02:55:57;101011.47;;;-1.15;86.80
31092;BME280;67728;53.122;12.776;2023-04-28T02:57:31;101011.56;;;-1.36;87.62
31092;BME280;67728;53.122;12.776;2023-04-28T02:59:02;101012.19;;;-1.19;88.02
31092;BME280;67728;53.122;12.776;2023-04-28T03:00:34;101016.88;;;-1.30;86.51
31092;BME280;67728;53.122;12.776;2023-04-28T03:02:05;101012.34;;;-1.37;86.34
31092;BME280;67728;53.122;12.776;2023-04-28T03:03:38;101004.72;;;-1.37;86.46
31092;BME280;67728;53.122;12.776;2023-04-28T03:05:10;101004.03;;;-1.33;85.78
31092;BME280;67728;53.122;12.776;2023-04-28T03:06:40;101006.13;;;-1.22;86.43
31092;BME280;67728;53.122;12.776;2023-04-28T03:08:12;101015.00;;;-1.12;85.88
31092;BME280;67728;53.122;12.776;2023-04-28T03:09:44;101018.34;;;-1.13;86.57
31092;BME280;67728;53.122;12.776;2023-04-28T03:11:17;101012.34;;;-1.15;86.29
31092;BME280;67728;53.122;12.776;2023-04-28T03:12:48;101007.13;;;-1.18;87.08
31092;BME280;67728;53.122;12.776;2023-04-28T03:14:20;101009.78;;;-1.15;85.42
31092;BME280;67728;53.122;12.776;2023-04-28T03:15:51;101012.63;;;-1.30;85.67
31092;BME280;67728;53.122;12.776;2023-04-28T03:17:23;101014.25;;;-1.32;85.14
31092;BME280;67728;53.122;12.776;2023-04-28T03:18:54;101013.28;;;-1.35;85.26
31092;BME280;67728;53.122;12.776;2023-04-28T03:20:25;101009.00;;;-1.36;86.47
31092;BME280;67728;53.122;12.776;2023-04-28T03:21:57;101005.56;;;-1.38;85.96
31092;BME280;67728;53.122;12.776;2023-04-28T03:23:28;101001.38;;;-1.36;86.48
31092;BME280;67728;53.122;12.776;2023-04-28T03:24:59;101011.59;;;-1.35;87.00
31092;BME280;67728;53.122;12.776;2023-04-28T03:26:33;100998.00;;;-1.35;86.84
31092;BME280;67728;53.122;12.776;2023-04-28T03:28:05;101013.47;;;-1.31;87.71
31092;BME280;67728;53.122;12.776;2023-04-28T03:29:36;101005.06;;;-1.28;87.36
31092;BME280;67728;53.122;12.776;2023-04-28T03:31:07;101013.72;;;-1.23;86.68
31092;BME280;67728;53.122;12.776;2023-04-28T03:32:39;101010.84;;;-1.32;86.13
31092;BME280;67728;53.122;12.776;2023-04-28T03:34:11;101007.38;;;-1.34;85.72
31092;BME280;67728;53.122;12.776;2023-04-28T03:35:41;101008.53;;;-1.48;86.13
31092;BME280;67728;53.122;12.776;2023-04-28T03:37:13;100994.13;;;-1.49;86.72
31092;BME280;67728;53.122;12.776;2023-04-28T03:38:45;101001.75;;;-1.49;86.09
31092;BME280;67728;53.122;12.776;2023-04-28T03:40:17;100996.81;;;-1.45;86.54
31092;BME280;67728;53.122;12.776;2023-04-28T03:41:49;100998.56;;;-1.44;87.12
31092;BME280;67728;53.122;12.776;2023-04-28T03:43:20;101004.56;;;-1.42;87.78
31092;BME280;67728;53.122;12.776;2023-04-28T03:44:51;100999.63;;;-1.37;86.79
31092;BME280;67728;53.122;12.776;2023-04-28T03:46:23;100993.03;;;-1.32;87.04
31092;BME280;67728;53.122;12.776;2023-04-28T03:47:53;100992.59;;;-1.44;86.62
31092;BME280;67728;53.122;12.776;2023-04-28T03:49:25;100989.03;;;-1.49;86.97
31092;BME280;67728;53.122;12.776;2023-04-28T03:50:56;100990.84;;;-1.45;86.77
31092;BME280;67728;53.122;12.776;2023-04-28T03:52:27;100995.94;;;-1.45;87.30
31092;BME280;67728;53.122;12.776;2023-04-28T03:53:58;100997.81;;;-1.41;87.69
31092;BME280;67728;53.122;12.776;2023-04-28T03:55:30;100994.28;;;-1.45;86.58
31092;BME280;67728;53.122;12.776;2023-04-28T03:57:02;100990.09;;;-1.43;86.39
31092;BME280;67728;53.122;12.776;2023-04-28T03:58:34;100989.22;;;-1.43;86.36
31092;BME280;67728;53.122;12.776;2023-04-28T04:00:07;100994.31;;;-1.43;86.63
31092;BME280;67728;53.122;12.776;2023-04-28T04:01:39;100995.31;;;-1.40;87.52
31092;BME280;67728;53.122;12.776;2023-04-28T04:03:09;100997.09;;;-1.37;86.90
31092;BME280;67728;53.122;12.776;2023-04-28T04:04:41;100992.84;;;-1.38;87.66
31092;BME280;67728;53.122;12.776;2023-04-28T04:06:13;100996.28;;;-1.36;87.84
31092;BME280;67728;53.122;12.776;2023-04-28T04:07:45;100991.03;;;-1.41;86.81
31092;BME280;67728;53.122;12.776;2023-04-28T04:09:16;100996.06;;;-1.42;88.03
31092;BME280;67728;53.122;12.776;2023-04-28T04:10:48;100985.97;;;-1.41;88.46
31092;BME280;67728;53.122;12.776;2023-04-28T04:12:22;100987.50;;;-1.44;86.91
31092;BME280;67728;53.122;12.776;2023-04-28T04:13:54;100984.97;;;-1.44;86.83
31092;BME280;67728;53.122;12.776;2023-04-28T04:15:26;100983.56;;;-1.36;86.78
31092;BME280;67728;53.122;12.776;2023-04-28T04:16:58;100974.59;;;-1.27;86.86
31092;BME280;67728;53.122;12.776;2023-04-28T04:18:28;100977.19;;;-1.25;87.40
31092;BME280;67728;53.122;12.776;2023-04-28T04:20:00;100979.63;;;-1.28;87.12
31092;BME280;67728;53.122;12.776;2023-04-28T04:21:32;100975.06;;;-1.37;87.43
31092;BME280;67728;53.122;12.776;2023-04-28T04:23:03;100975.94;;;-1.36;88.44
31092;BME280;67728;53.122;12.776;2023-04-28T04:24:34;100985.38;;;-1.34;87.79
31092;BME280;67728;53.122;12.776;2023-04-28T04:26:05;100969.22;;;-1.34;87.67
31092;BME280;67728;53.122;12.776;2023-04-28T04:27:38;100974.59;;;-1.27;88.01
31092;BME280;67728;53.122;12.776;2023-04-28T04:29:10;100972.78;;;-1.29;86.87
31092;BME280;67728;53.122;12.776;2023-04-28T04:30:42;100973.78;;;-1.26;88.06
31092;BME280;67728;53.122;12.776;2023-04-28T04:32:14;100977.25;;;-1.24;87.36
31092;BME280;67728;53.122;12.776;2023-04-28T04:33:45;100973.03;;;-1.23;86.83
31092;BME280;67728;53.122;12.776;2023-04-28T04:35:17;100973.28;;;-1.15;87.32
31092;BME280;67728;53.122;12.776;2023-04-28T04:36:49;100980.00;;;-1.17;86.64
31092;BME280;67728;53.122;12.776;2023-04-28T04:38:21;100975.84;;;-1.15;86.99
31092;BME280;67728;53.122;12.776;2023-04-28T04:39:51;100968.47;;;-1.08;87.24
31092;BME280;67728;53.122;12.776;2023-04-28T04:41:24;100971.94;;;-1.06;87.06
31092;BME280;67728;53.122;12.776;2023-04-28T04:42:56;100971.44;;;-0.96;86.04
31092;BME280;67728;53.122;12.776;2023-04-28T04:44:28;100972.31;;;-0.95;86.26
31092;BME280;67728;53.122;12.776;2023-04-28T04:45:59;100976.44;;;-0.99;86.68
31092;BME280;67728;53.122;12.776;2023-04-28T04:47:30;100975.53;;;-1.01;87.49
31092;BME280;67728;53.122;12.776;2023-04-28T04:49:02;100974.00;;;-0.96;86.58
31092;BME280;67728;53.122;12.776;2023-04-28T04:50:33;100974.75;;;-0.98;87.22
31092;BME280;67728;53.122;12.776;2023-04-28T04:52:05;100968.91;;;-0.96;86.77
31092;BME280;67728;53.122;12.776;2023-04-28T04:53:36;100976.88;;;-0.87;86.23
31092;BME280;67728;53.122;12.776;2023-04-28T04:55:08;100974.22;;;-0.90;86.62
31092;BME280;67728;53.122;12.776;2023-04-28T04:56:40;100969.31;;;-0.84;86.77
31092;BME280;67728;53.122;12.776;2023-04-28T04:58:13;100970.38;;;-0.79;86.08
31092;BME280;67728;53.122;12.776;2023-04-28T04:59:45;100969.31;;;-0.84;85.84
31092;BME280;67728;53.122;12.776;2023-04-28T05:01:16;100966.38;;;-0.71;85.98
31092;BME280;67728;53.122;12.776;2023-04-28T05:02:49;100970.06;;;-0.63;86.12
31092;BME280;67728;53.122;12.776;2023-04-28T05:04:21;100974.94;;;-0.69;86.08
31092;BME280;67728;53.122;12.776;2023-04-28T05:05:52;100967.41;;;-0.66;86.16
31092;BME280;67728;53.122;12.776;2023-04-28T05:07:24;100961.34;;;-0.69;86.91
31092;BME280;67728;53.122;12.776;2023-04-28T05:08:55;100959.16;;;-0.58;86.64
31092;BME280;67728;53.122;12.776;2023-04-28T05:10:28;100956.44;;;-0.63;87.13
31092;BME280;67728;53.122;12.776;2023-04-28T05:11:59;100956.69;;;-0.55;87.19
31092;BME280;67728;53.122;12.776;2023-04-28T05:13:32;100961.28;;;-0.45;86.42
31092;BME280;67728;53.122;12.776;2023-04-28T05:15:04;100956.38;;;-0.39;86.29
31092;BME280;67728;53.122;12.776;2023-04-28T05:16:37;100957.63;;;-0.27;86.44
31092;BME280;67728;53.122;12.776;2023-04-28T05:18:08;100961.16;;;-0.23;86.14
31092;BME280;67728;53.122;12.776;2023-04-28T05:19:40;100950.75;;;-0.29;85.06
31092;BME280;67728;53.122;12.776;2023-04-28T05:21:11;100955.28;;;-0.21;85.67
31092;BME280;67728;53.122;12.776;2023-04-28T05:22:42;100945.19;;;-0.18;86.11
31092;BME280;67728;53.122;12.776;2023-04-28T05:24:14;100952.81;;;-0.18;85.44
31092;BME280;67728;53.122;12.776;2023-04-28T05:25:45;100955.69;;;-0.09;85.01
31092;BME280;67728;53.122;12.776;2023-04-28T05:27:17;100950.16;;;0.06;86.05
31092;BME280;67728;53.122;12.776;2023-04-28T05:28:50;100953.56;;;0.05;86.29
31092;BME280;67728;53.122;12.776;2023-04-28T05:30:22;100952.78;;;0.08;85.72
31092;BME280;67728;53.122;12.776;2023-04-28T05:31:54;100950.94;;;0.04;86.04
31092;BME280;67728;53.122;12.776;2023-04-28T05:33:26;100954.09;;;0.23;85.95
31092;BME280;67728;53.122;12.776;2023-04-28T05:34:58;100948.59;;;0.38;86.61
31092;BME280;67728;53.122;12.776;2023-04-28T05:36:30;100943.72;;;0.47;86.99
31092;BME280;67728;53.122;12.776;2023-04-28T05:38:02;100953.53;;;0.62;87.14
31092;BME280;67728;53.122;12.776;2023-04-28T05:39:34;100950.31;;;0.69;86.45
31092;BME280;67728;53.122;12.776;2023-04-28T05:41:05;100939.59;;;0.82;86.55
31092;BME280;67728;53.122;12.776;2023-04-28T05:42:37;100941.53;;;0.89;85.96
31092;BME280;67728;53.122;12.776;2023-04-28T05:44:10;100942.72;;;1.03;86.03
31092;BME280;67728;53.122;12.776;2023-04-28T05:45:42;100933.78;;;1.18;85.76
31092;BME280;67728;53.122;12.776;2023-04-28T05:47:13;100941.84;;;1.34;85.31
31092;BME280;67728;53.122;12.776;2023-04-28T05:48:45;100932.84;;;1.84;83.34
31092;BME280;67728;53.122;12.776;2023-04-28T05:50:17;100927.13;;;1.95;82.59
31092;BME280;67728;53.122;12.776;2023-04-28T05:51:49;100932.19;;;2.31;81.21
31092;BME280;67728;53.122;12.776;2023-04-28T05:53:21;100931.16;;;2.23;82.61
31092;BME280;67728;53.122;12.776;2023-04-28T05:54:51;100922.00;;;2.32;80.92
31092;BME280;67728;53.122;12.776;2023-04-28T05:56:23;100922.16;;;2.40;81.78
31092;BME280;67728;53.122;12.776;2023-04-28T05:57:55;100920.47;;;2.42;81.80
31092;BME280;67728;53.122;12.776;2023-04-28T05:59:28;100912.00;;;2.45;81.57
31092;BME280;67728;53.122;12.776;2023-04-28T06:01:00;100920.84;;;2.60;80.56
31092;BME280;67728;53.122;12.776;2023-04-28T06:02:32;100913.44;;;2.74;80.77
31092;BME280;67728;53.122;12.776;2023-04-28T06:04:04;100907.94;;;3.00;80.39
31092;BME280;67728;53.122;12.776;2023-04-28T06:05:35;100914.13;;;3.12;79.43
31092;BME280;67728;53.122;12.776;2023-04-28T06:07:07;100909.88;;;3.14;79.22
31092;BME280;67728;53.122;12.776;2023-04-28T06:08:39;100909.19;;;3.22;79.10
31092;BME280;67728;53.122;12.776;2023-04-28T06:10:10;100912.63;;;3.23;78.27
31092;BME280;67728;53.122;12.776;2023-04-28T06:11:42;100898.56;;;3.50;79.18
31092;BME280;67728;53.122;12.776;2023-04-28T06:13:14;100909.44;;;3.36;78.54
31092;BME280;67728;53.122;12.776;2023-04-28T06:14:47;100908.50;;;3.31;78.85
31092;BME280;67728;53.122;12.776;2023-04-28T06:16:19;100902.06;;;3.57;77.63
31092;BME280;67728;53.122;12.776;2023-04-28T06:17:52;100899.38;;;4.05;74.42
31092;BME280;67728;53.122;12.776;2023-04-28T06:19:24;100908.50;;;4.48;72.82
31092;BME280;67728;53.122;12.776;2023-04-28T06:20:55;100899.31;;;4.65;71.81
31092;BME280;67728;53.122;12.776;2023-04-28T06:22:26;100902.75;;;4.68;71.54
31092;BME280;67728;53.122;12.776;2023-04-28T06:23:58;100903.63;;;4.70;74.51
31092;BME280;67728;53.122;12.776;2023-04-28T06:25:31;100904.81;;;5.01;70.24
31092;BME280;67728;53.122;12.776;2023-04-28T06:27:02;100902.38;;;5.15;71.78
31092;BME280;67728;53.122;12.776;2023-04-28T06:28:34;100897.13;;;5.06;72.37
31092;BME280;67728;53.122;12.776;2023-04-28T06:30:08;100892.09;;;5.13;72.75
31092;BME280;67728;53.122;12.776;2023-04-28T06:31:40;100896.56;;;5.35;70.35
31092;BME280;67728;53.122;12.776;2023-04-28T06:33:11;100891.84;;;5.87;69.33
31092;BME280;67728;53.122;12.776;2023-04-28T06:34:44;100886.84;;;6.14;68.19
31092;BME280;67728;53.122;12.776;2023-04-28T06:36:15;100892.88;;;6.16;67.39
31092;BME280;67728;53.122;12.776;2023-04-28T06:37:47;100889.47;;;6.22;67.91
31092;BME280;67728;53.122;12.776;2023-04-28T06:39:18;100886.97;;;6.37;67.20
31092;BME280;67728;53.122;12.776;2023-04-28T06:40:49;100886.16;;;6.50;66.45
31092;BME280;67728;53.122;12.776;2023-04-28T06:42:21;100883.66;;;6.73;67.49
31092;BME280;67728;53.122;12.776;2023-04-28T06:43:52;100884.56;;;6.93;64.36
31092;BME280;67728;53.122;12.776;2023-04-28T06:45:26;100879.41;;;7.00;65.41
31092;BME280;67728;53.122;12.776;2023-04-28T06:46:58;100880.31;;;7.25;64.66
31092;BME280;67728;53.122;12.776;2023-04-28T06:48:30;100878.59;;;7.38;63.54
31092;BME280;67728;53.122;12.776;2023-04-28T06:50:02;100876.03;;;7.48;63.00
31092;BME280;67728;53.122;12.776;2023-04-28T06:51:33;100874.25;;;7.71;62.09
31092;BME280;67728;53.122;12.776;2023-04-28T06:53:05;100875.97;;;7.89;61.84
31092;BME280;67728;53.122;12.776;2023-04-28T06:54:38;100883.66;;;8.07;60.98
31092;BME280;67728;53.122;12.776;2023-04-28T06:56:09;100872.41;;;8.26;62.02
31092;BME280;67728;53.122;12.776;2023-04-28T06:57:41;100873.22;;;8.47;61.15
31092;BME280;67728;53.122;12.776;2023-04-28T06:59:13;100868.88;;;8.52;60.56
31092;BME280;67728;53.122;12.776;2023-04-28T07:00:46;100870.34;;;9.01;61.08
31092;BME280;67728;53.122;12.776;2023-04-28T07:02:18;100866.75;;;10.14;56.82
31092;BME280;67728;53.122;12.776;2023-04-28T07:03:49;100870.78;;;9.54;54.92
31092;BME280;67728;53.122;12.776;2023-04-28T07:05:21;100867.59;;;9.19;56.67
31092;BME280;67728;53.122;12.776;2023-04-28T07:06:53;100854.66;;;9.24;57.38
31092;BME280;67728;53.122;12.776;2023-04-28T07:08:25;100861.59;;;9.17;57.31
31092;BME280;67728;53.122;12.776;2023-04-28T07:09:59;100858.88;;;9.34;57.31
31092;BME280;67728;53.122;12.776;2023-04-28T07:11:30;100851.19;;;9.25;55.03
31092;BME280;67728;53.122;12.776;2023-04-28T07:13:02;100848.53;;;9.34;54.46
31092;BME280;67728;53.122;12.776;2023-04-28T07:14:34;100851.78;;;9.55;54.69
31092;BME280;67728;53.122;12.776;2023-04-28T07:16:07;100858.66;;;9.61;55.32
31092;BME280;67728;53.122;12.776;2023-04-28T07:17:39;100855.19;;;9.62;55.49
31092;BME280;67728;53.122;12.776;2023-04-28T07:19:11;100855.13;;;9.65;53.55
31092;BME280;67728;53.122;12.776;2023-04-28T07:20:43;100859.47;;;9.65;54.21
31092;BME280;67728;53.122;12.776;2023-04-28T07:22:14;100850.88;;;9.61;53.31
31092;BME280;67728;53.122;12.776;2023-04-28T07:23:46;100855.25;;;9.53;52.57
31092;BME280;67728;53.122;12.776;2023-04-28T07:25:18;100849.88;;;9.76;53.37
31092;BME280;67728;53.122;12.776;2023-04-28T07:26:50;100845.59;;;9.73;52.20
31092;BME280;67728;53.122;12.776;2023-04-28T07:28:21;100848.22;;;9.70;52.98
31092;BME280;67728;53.122;12.776;2023-04-28T07:29:53;100846.31;;;9.84;53.82
31092;BME280;67728;53.122;12.776;2023-04-28T07:31:26;100844.44;;;9.98;53.12
31092;BME280;67728;53.122;12.776;2023-04-28T07:32:58;100835.63;;;10.19;51.78
31092;BME280;67728;53.122;12.776;2023-04-28T07:34:30;100840.00;;;10.11;51.85
31092;BME280;67728;53.122;12.776;2023-04-28T07:36:02;100838.16;;;10.24;51.44
31092;BME280;67728;53.122;12.776;2023-04-28T07:37:34;100835.38;;;10.37;52.82
31092;BME280;67728;53.122;12.776;2023-04-28T07:39:06;100830.06;;;10.48;51.22
31092;BME280;67728;53.122;12.776;2023-04-28T07:40:38;100826.41;;;10.61;51.46
31092;BME280;67728;53.122;12.776;2023-04-28T07:42:10;100826.75;;;10.96;50.78
31092;BME280;67728;53.122;12.776;2023-04-28T07:43:42;100827.03;;;10.78;48.46
31092;BME280;67728;53.122;12.776;2023-04-28T07:45:14;100825.91;;;10.97;50.54
31092;BME280;67728;53.122;12.776;2023-04-28T07:46:48;100831.53;;;10.67;48.00
31092;BME280;67728;53.122;12.776;2023-04-28T07:48:21;100824.50;;;10.73;48.27
31092;BME280;67728;53.122;12.776;2023-04-28T07:49:54;100820.88;;;10.87;47.62
31092;BME280;67728;53.122;12.776;2023-04-28T07:51:27;100820.72;;;10.96;48.04
31092;BME280;67728;53.122;12.776;2023-04-28T07:52:59;100821.53;;;10.99;49.44
31092;BME280;67728;53.122;12.776;2023-04-28T07:54:31;100821.66;;;10.90;47.19